Darstellungsparameter: Aktuell verwendete Einstellungen:
Skalierung der Graphiken ... ?
xyx+y,   Skalierungsfaktor:      Skalierung: Modus: x, Faktor: 1
Darstellungszeitraum ... ?
Vom - - bis: - -   Zeitraum: 16.08.2019 - 16.08.2019
Min/Max/Avg-Anzeige ... ?
Zeige MMA aktuell
Zeige MMA Monat
Zeige MMA alles
Zeige --A aktuell
Zeige --A Monat
Zeige --A alles
Keine MMA-Anzeige
MMA:
Keine MMA-Graphiken
MMA-Basis: 16.08.2019 - 16.08.2019
Quicknavigation für Darstellung... ?
Tage:      1T, 2T, 3T, 5T -1T -2T -3T -5T +1T +2T +3T +5T
Wochen: 1W, 2W, 3W -1W -2W -3W +1W +2W +3W
Monate: 1M, 3M, 6M -1M -3M -6M +1M +3M +6M
Jahre:    1J, 3J, 5J, 10J -1J -3J -5J -10J +1J +3J +5J +10J
Nutze für die Darstellung ... ?
Originaldaten oder Mittelwerte auf ...
Stundenbasis Tagesbasis Wochenbasis
Monatsbasis Jahresbasis      Datenbasis: Original-Daten
Darstellen als:
Statistik (Auto) Statistik J:M      Darstellung:
Zur Graphik,    zurück zur Übersicht aller Sensoren.
 
Tabellarische Datenbersicht: ?
 
Sensor: Nr:Datum:Temp:Feuchte:Taupunkt:
Aussen-T/F 1 16-08-2019 00:00:00 15.4 C 95 % 14.6 C
2 16-08-2019 00:05:00 15.4 C 95 % 14.6 C
3 16-08-2019 00:10:00 15.4 C 95 % 14.6 C
4 16-08-2019 00:15:00 15.4 C 96 % 14.77 C
5 16-08-2019 00:20:00 15.4 C 95 % 14.6 C
6 16-08-2019 00:25:00 15.4 C 95 % 14.6 C
7 16-08-2019 00:30:00 15.4 C 95 % 14.6 C
8 16-08-2019 00:35:00 15.3 C 95 % 14.5 C
9 16-08-2019 00:40:00 15.2 C 95 % 14.4 C
10 16-08-2019 00:45:00 15.2 C 95 % 14.4 C
11 16-08-2019 00:50:00 15.1 C 95 % 14.31 C
12 16-08-2019 00:55:00 14.9 C 95 % 14.11 C
13 16-08-2019 01:00:00 14.8 C 95 % 14.01 C
14 16-08-2019 01:05:00 14.8 C 95 % 14.01 C
15 16-08-2019 01:10:00 14.7 C 95 % 13.91 C
16 16-08-2019 01:15:00 14.7 C 95 % 13.91 C
17 16-08-2019 01:20:00 14.7 C 95 % 13.91 C
18 16-08-2019 01:25:00 14.6 C 95 % 13.81 C
19 16-08-2019 01:30:00 14.6 C 95 % 13.81 C
20 16-08-2019 01:35:00 14.6 C 95 % 13.81 C
21 16-08-2019 01:40:00 14.6 C 95 % 13.81 C
22 16-08-2019 01:45:00 14.5 C 96 % 13.87 C
23 16-08-2019 01:50:00 14.5 C 96 % 13.87 C
24 16-08-2019 01:55:00 14.5 C 96 % 13.87 C
25 16-08-2019 02:00:00 14.5 C 96 % 13.87 C
Sensor: Nr:Datum:Temp:Feuchte:Taupunkt:
Aussen-T/F 26 16-08-2019 02:05:00 14.5 C 96 % 13.87 C
27 16-08-2019 02:10:00 14.5 C 96 % 13.87 C
28 16-08-2019 02:15:00 14.6 C 96 % 13.97 C
29 16-08-2019 02:20:00 14.6 C 96 % 13.97 C
30 16-08-2019 02:25:00 14.6 C 96 % 13.97 C
31 16-08-2019 02:30:00 14.6 C 96 % 13.97 C
32 16-08-2019 02:35:00 14.6 C 96 % 13.97 C
33 16-08-2019 02:40:00 14.6 C 96 % 13.97 C
34 16-08-2019 02:45:00 14.6 C 96 % 13.97 C
35 16-08-2019 02:50:00 14.6 C 96 % 13.97 C
36 16-08-2019 02:55:00 14.6 C 96 % 13.97 C
37 16-08-2019 03:00:00 14.6 C 96 % 13.97 C
38 16-08-2019 03:05:00 14.6 C 96 % 13.97 C
39 16-08-2019 03:10:00 14.6 C 96 % 13.97 C
40 16-08-2019 03:15:00 14.6 C 96 % 13.97 C
41 16-08-2019 03:20:00 14.6 C 96 % 13.97 C
42 16-08-2019 03:25:00 14.7 C 96 % 14.07 C
43 16-08-2019 03:30:00 14.7 C 96 % 14.07 C
44 16-08-2019 03:35:00 14.7 C 96 % 14.07 C
45 16-08-2019 03:40:00 14.7 C 96 % 14.07 C
46 16-08-2019 03:45:00 14.7 C 96 % 14.07 C
47 16-08-2019 03:50:00 14.6 C 96 % 13.97 C
48 16-08-2019 03:55:00 14.6 C 96 % 13.97 C
49 16-08-2019 04:00:00 14.6 C 96 % 13.97 C
50 16-08-2019 04:05:00 14.6 C 96 % 13.97 C
Sensor: Nr:Datum:Temp:Feuchte:Taupunkt:
Aussen-T/F 51 16-08-2019 04:10:00 14.5 C 96 % 13.87 C
52 16-08-2019 04:15:00 14.4 C 96 % 13.77 C
53 16-08-2019 04:20:00 14.3 C 96 % 13.67 C
54 16-08-2019 04:25:00 14.1 C 96 % 13.47 C
55 16-08-2019 04:30:00 14 C 96 % 13.37 C
56 16-08-2019 04:35:00 13.8 C 96 % 13.17 C
57 16-08-2019 04:40:00 13.8 C 96 % 13.17 C
58 16-08-2019 04:45:00 13.7 C 96 % 13.07 C
59 16-08-2019 04:50:00 13.6 C 96 % 12.97 C
60 16-08-2019 04:55:00 13.6 C 96 % 12.97 C
61 16-08-2019 05:00:00 13.6 C 96 % 12.97 C
62 16-08-2019 05:05:00 13.5 C 96 % 12.87 C
63 16-08-2019 05:10:00 13.5 C 96 % 12.87 C
64 16-08-2019 05:15:00 13.6 C 96 % 12.97 C
65 16-08-2019 05:20:00 13.6 C 96 % 12.97 C
66 16-08-2019 05:25:00 13.6 C 96 % 12.97 C
67 16-08-2019 05:30:00 13.6 C 96 % 12.97 C
68 16-08-2019 05:35:00 13.6 C 96 % 12.97 C
69 16-08-2019 05:40:00 13.6 C 96 % 12.97 C
70 16-08-2019 05:45:00 13.6 C 97 % 13.13 C
71 16-08-2019 05:50:00 13.5 C 97 % 13.03 C
72 16-08-2019 05:55:00 13.6 C 97 % 13.13 C
73 16-08-2019 06:00:00 13.6 C 97 % 13.13 C
74 16-08-2019 06:05:00 13.6 C 97 % 13.13 C
75 16-08-2019 06:10:00 13.6 C 97 % 13.13 C
Sensor: Nr:Datum:Temp:Feuchte:Taupunkt:
Aussen-T/F 76 16-08-2019 06:15:00 13.6 C 97 % 13.13 C
77 16-08-2019 06:20:00 13.6 C 97 % 13.13 C
78 16-08-2019 06:25:00 13.6 C 97 % 13.13 C
79 16-08-2019 06:30:00 13.6 C 97 % 13.13 C
80 16-08-2019 06:35:00 13.7 C 97 % 13.23 C
81 16-08-2019 06:40:00 13.8 C 97 % 13.33 C
82 16-08-2019 06:45:00 13.8 C 97 % 13.33 C
83 16-08-2019 06:50:00 13.9 C 97 % 13.43 C
84 16-08-2019 06:55:00 13.9 C 97 % 13.43 C
85 16-08-2019 07:00:00 14.1 C 97 % 13.63 C
86 16-08-2019 07:05:00 14.1 C 97 % 13.63 C
87 16-08-2019 07:10:00 14.1 C 97 % 13.63 C
88 16-08-2019 07:15:00 14.1 C 97 % 13.63 C
89 16-08-2019 07:20:00 14.1 C 97 % 13.63 C
90 16-08-2019 07:25:00 14.2 C 97 % 13.73 C
91 16-08-2019 07:30:00 14.2 C 97 % 13.73 C
92 16-08-2019 07:35:00 14.2 C 96 % 13.57 C
93 16-08-2019 07:40:00 14.2 C 96 % 13.57 C
94 16-08-2019 07:45:00 14.3 C 96 % 13.67 C
95 16-08-2019 07:50:00 14.3 C 96 % 13.67 C
96 16-08-2019 07:55:00 14.3 C 96 % 13.67 C
97 16-08-2019 08:00:00 14.3 C 96 % 13.67 C
98 16-08-2019 08:05:00 14.3 C 96 % 13.67 C
99 16-08-2019 08:10:00 14.3 C 96 % 13.67 C
100 16-08-2019 08:15:00 14.3 C 96 % 13.67 C
Sensor: Nr:Datum:Temp:Feuchte:Taupunkt:
Aussen-T/F 101 16-08-2019 08:20:00 14.3 C 96 % 13.67 C
102 16-08-2019 08:25:00 14.3 C 96 % 13.67 C
103 16-08-2019 08:30:00 14.4 C 96 % 13.77 C
104 16-08-2019 08:35:00 14.4 C 95 % 13.61 C
105 16-08-2019 08:40:00 14.6 C 95 % 13.81 C
106 16-08-2019 08:45:00 14.7 C 94 % 13.74 C
107 16-08-2019 08:50:00 14.8 C 93 % 13.68 C
108 16-08-2019 08:55:00 14.8 C 92 % 13.51 C
109 16-08-2019 09:00:00 14.9 C 92 % 13.61 C
110 16-08-2019 09:05:00 15.1 C 91 % 13.64 C
111 16-08-2019 09:10:00 15.2 C 91 % 13.74 C
112 16-08-2019 09:15:00 15.3 C 91 % 13.84 C
113 16-08-2019 09:20:00 15.3 C 90 % 13.67 C
114 16-08-2019 09:25:00 15.4 C 90 % 13.77 C
115 16-08-2019 09:30:00 15.6 C 89 % 13.79 C
116 16-08-2019 09:35:00 15.7 C 89 % 13.89 C
117 16-08-2019 09:40:00 15.8 C 89 % 13.99 C
118 16-08-2019 09:45:00 16 C 89 % 14.19 C
119 16-08-2019 09:50:00 16.1 C 88 % 14.11 C
120 16-08-2019 09:55:00 16.1 C 88 % 14.11 C
121 16-08-2019 10:00:00 16.1 C 87 % 13.94 C
122 16-08-2019 10:05:00 16.1 C 87 % 13.94 C
123 16-08-2019 10:10:00 16.1 C 86 % 13.76 C
124 16-08-2019 10:15:00 16.2 C 87 % 14.03 C
125 16-08-2019 10:20:00 16.2 C 87 % 14.03 C
Sensor: Nr:Datum:Temp:Feuchte:Taupunkt:
Aussen-T/F 126 16-08-2019 10:25:00 16.3 C 86 % 13.95 C
127 16-08-2019 10:30:00 16.3 C 85 % 13.77 C
128 16-08-2019 10:35:00 16.2 C 85 % 13.68 C
129 16-08-2019 10:40:00 16.3 C 85 % 13.77 C
130 16-08-2019 10:45:00 16.4 C 85 % 13.87 C
131 16-08-2019 10:50:00 16.4 C 85 % 13.87 C
132 16-08-2019 10:55:00 16.6 C 84 % 13.89 C
133 16-08-2019 11:00:00 16.7 C 84 % 13.98 C
134 16-08-2019 11:05:00 16.7 C 84 % 13.98 C
135 16-08-2019 11:10:00 16.7 C 84 % 13.98 C
136 16-08-2019 11:15:00 16.8 C 84 % 14.08 C
137 16-08-2019 11:20:00 16.9 C 83 % 14 C
138 16-08-2019 11:25:00 17.1 C 83 % 14.19 C
139 16-08-2019 11:30:00 17.1 C 82 % 14 C
140 16-08-2019 11:35:00 17.2 C 83 % 14.29 C
141 16-08-2019 11:40:00 17.3 C 81 % 14.01 C
142 16-08-2019 11:45:00 17.4 C 81 % 14.11 C
143 16-08-2019 11:50:00 17.6 C 80 % 14.11 C
144 16-08-2019 11:55:00 17.7 C 80 % 14.21 C
145 16-08-2019 12:00:00 17.8 C 80 % 14.31 C
146 16-08-2019 12:05:00 17.8 C 78 % 13.91 C
147 16-08-2019 12:10:00 17.9 C 79 % 14.21 C
148 16-08-2019 12:15:00 18 C 78 % 14.11 C
149 16-08-2019 12:20:00 18.2 C 78 % 14.3 C
150 16-08-2019 12:25:00 18.3 C 76 % 14 C
Sensor: Nr:Datum:Temp:Feuchte:Taupunkt:
Aussen-T/F 151 16-08-2019 12:30:00 18.5 C 76 % 14.19 C
152 16-08-2019 12:35:00 18.7 C 76 % 14.39 C
153 16-08-2019 12:40:00 18.8 C 75 % 14.28 C
154 16-08-2019 12:45:00 18.9 C 74 % 14.17 C
155 16-08-2019 12:50:00 19.1 C 74 % 14.36 C
156 16-08-2019 12:55:00 19.2 C 73 % 14.25 C
157 16-08-2019 13:00:00 19.3 C 72 % 14.13 C
158 16-08-2019 13:05:00 19.4 C 72 % 14.22 C
159 16-08-2019 13:10:00 19.4 C 70 % 13.79 C
160 16-08-2019 13:15:00 19.5 C 71 % 14.1 C
161 16-08-2019 13:20:00 19.6 C 70 % 13.98 C
162 16-08-2019 13:25:00 19.7 C 70 % 14.08 C
163 16-08-2019 13:30:00 19.7 C 71 % 14.3 C
164 16-08-2019 13:35:00 19.8 C 70 % 14.17 C
165 16-08-2019 13:40:00 19.8 C 71 % 14.39 C
166 16-08-2019 13:45:00 19.8 C 71 % 14.39 C
167 16-08-2019 13:50:00 19.9 C 70 % 14.27 C
168 16-08-2019 13:55:00 19.9 C 71 % 14.49 C
169 16-08-2019 14:00:00 19.9 C 71 % 14.49 C
170 16-08-2019 14:05:00 19.9 C 69 % 14.05 C
171 16-08-2019 14:10:00 19.9 C 69 % 14.05 C
172 16-08-2019 14:15:00 20.1 C 69 % 14.24 C
173 16-08-2019 14:20:00 20.2 C 69 % 14.33 C
174 16-08-2019 14:25:00 20.2 C 68 % 14.11 C
175 16-08-2019 14:30:00 20.4 C 67 % 14.07 C
Sensor: Nr:Datum:Temp:Feuchte:Taupunkt:
Aussen-T/F 176 16-08-2019 14:35:00 20.5 C 67 % 14.16 C
177 16-08-2019 14:40:00 20.7 C 67 % 14.36 C
178 16-08-2019 14:45:00 20.9 C 66 % 14.31 C
179 16-08-2019 14:50:00 21 C 65 % 14.17 C
180 16-08-2019 14:55:00 21.1 C 65 % 14.27 C
181 16-08-2019 15:00:00 21.3 C 65 % 14.46 C
182 16-08-2019 15:05:00 21.5 C 65 % 14.65 C
183 16-08-2019 15:10:00 21.7 C 62 % 14.1 C
184 16-08-2019 15:15:00 21.8 C 63 % 14.45 C
185 16-08-2019 15:20:00 21.8 C 60 % 13.69 C
186 16-08-2019 15:25:00 21.7 C 61 % 13.85 C
187 16-08-2019 15:30:00 21.8 C 60 % 13.69 C
188 16-08-2019 15:35:00 22.1 C 58 % 13.45 C
189 16-08-2019 15:40:00 22.3 C 61 % 14.42 C
190 16-08-2019 15:45:00 22.2 C 59 % 13.81 C
191 16-08-2019 15:50:00 22.1 C 59 % 13.72 C
192 16-08-2019 15:55:00 22.6 C 59 % 14.18 C
193 16-08-2019 16:00:00 22.7 C 56 % 13.47 C
194 16-08-2019 16:05:00 22.9 C 55 % 13.38 C
195 16-08-2019 16:10:00 23.1 C 57 % 14.12 C
196 16-08-2019 16:15:00 23.2 C 54 % 13.38 C
197 16-08-2019 16:20:00 23.4 C 59 % 14.93 C
198 16-08-2019 16:25:00 23.8 C 55 % 14.22 C
199 16-08-2019 16:30:00 24 C 54 % 14.12 C
200 16-08-2019 16:35:00 24 C 53 % 13.83 C
Sensor: Nr:Datum:Temp:Feuchte:Taupunkt:
Aussen-T/F 201 16-08-2019 16:40:00 23.9 C 54 % 14.03 C
202 16-08-2019 16:45:00 24.1 C 52 % 13.63 C
203 16-08-2019 16:50:00 24.3 C 53 % 14.11 C
204 16-08-2019 16:55:00 24.2 C 52 % 13.73 C
205 16-08-2019 17:00:00 24.2 C 51 % 13.43 C
206 16-08-2019 17:05:00 24.4 C 53 % 14.2 C
207 16-08-2019 17:10:00 24.4 C 52 % 13.91 C
208 16-08-2019 17:15:00 24.5 C 50 % 13.4 C
209 16-08-2019 17:20:00 24.5 C 51 % 13.7 C
210 16-08-2019 17:25:00 24.4 C 52 % 13.91 C
211 16-08-2019 17:30:00 24.4 C 50 % 13.31 C
212 16-08-2019 17:35:00 24.6 C 53 % 14.39 C
213 16-08-2019 17:40:00 24.7 C 51 % 13.89 C
214 16-08-2019 17:45:00 24.3 C 54 % 14.4 C
215 16-08-2019 17:50:00 24.5 C 54 % 14.58 C
216 16-08-2019 17:55:00 24.8 C 51 % 13.98 C
217 16-08-2019 18:00:00 24.8 C 55 % 15.15 C
218 16-08-2019 18:05:00 24.9 C 52 % 14.37 C
219 16-08-2019 18:10:00 24.7 C 51 % 13.89 C
220 16-08-2019 18:15:00 24.4 C 54 % 14.49 C
221 16-08-2019 18:20:00 24.6 C 52 % 14.09 C
222 16-08-2019 18:25:00 24.6 C 52 % 14.09 C
223 16-08-2019 18:30:00 24.4 C 52 % 13.91 C
224 16-08-2019 18:35:00 24.3 C 50 % 13.22 C
225 16-08-2019 18:40:00 24.1 C 52 % 13.63 C
Sensor: Nr:Datum:Temp:Feuchte:Taupunkt:
Aussen-T/F 226 16-08-2019 18:45:00 24.1 C 51 % 13.34 C
227 16-08-2019 18:50:00 24.2 C 52 % 13.73 C
228 16-08-2019 18:55:00 24.1 C 52 % 13.63 C
229 16-08-2019 19:00:00 24.1 C 54 % 14.21 C
230 16-08-2019 19:05:00 24.1 C 54 % 14.21 C
231 16-08-2019 19:10:00 24.1 C 53 % 13.93 C
232 16-08-2019 19:15:00 23.9 C 53 % 13.74 C
233 16-08-2019 19:20:00 23.7 C 53 % 13.56 C
234 16-08-2019 19:25:00 23.5 C 53 % 13.37 C
235 16-08-2019 19:30:00 23.3 C 59 % 14.84 C
236 16-08-2019 19:35:00 23.1 C 60 % 14.91 C
237 16-08-2019 19:40:00 23.1 C 65 % 16.16 C
238 16-08-2019 19:45:00 22.9 C 64 % 15.73 C
239 16-08-2019 19:50:00 22.7 C 65 % 15.78 C
240 16-08-2019 19:55:00 22.5 C 65 % 15.59 C
241 16-08-2019 20:00:00 22.1 C 67 % 15.69 C
242 16-08-2019 20:05:00 21.7 C 68 % 15.54 C
243 16-08-2019 20:10:00 21.2 C 68 % 15.06 C
244 16-08-2019 20:15:00 20.8 C 70 % 15.13 C
245 16-08-2019 20:20:00 20.4 C 71 % 14.97 C
246 16-08-2019 20:25:00 20.1 C 71 % 14.68 C
247 16-08-2019 20:30:00 19.8 C 72 % 14.61 C
248 16-08-2019 20:35:00 19.4 C 73 % 14.44 C
249 16-08-2019 20:40:00 19.2 C 73 % 14.25 C
250 16-08-2019 20:45:00 18.9 C 74 % 14.17 C
Sensor: Nr:Datum:Temp:Feuchte:Taupunkt:
Aussen-T/F 251 16-08-2019 20:50:00 18.7 C 76 % 14.39 C
252 16-08-2019 20:55:00 18.6 C 76 % 14.29 C
253 16-08-2019 21:00:00 18.4 C 78 % 14.5 C
254 16-08-2019 21:05:00 18.2 C 78 % 14.3 C
255 16-08-2019 21:10:00 18.1 C 78 % 14.21 C
256 16-08-2019 21:15:00 18 C 80 % 14.5 C
257 16-08-2019 21:20:00 17.9 C 80 % 14.4 C
258 16-08-2019 21:25:00 17.8 C 80 % 14.31 C
259 16-08-2019 21:30:00 17.7 C 81 % 14.4 C
260 16-08-2019 21:35:00 17.6 C 81 % 14.3 C
261 16-08-2019 21:40:00 17.5 C 81 % 14.2 C
262 16-08-2019 21:45:00 17.4 C 82 % 14.3 C
263 16-08-2019 21:50:00 17.3 C 82 % 14.2 C
264 16-08-2019 21:55:00 17.2 C 83 % 14.29 C
265 16-08-2019 22:00:00 17.2 C 83 % 14.29 C
266 16-08-2019 22:05:00 17.1 C 84 % 14.38 C
267 16-08-2019 22:10:00 17.1 C 84 % 14.38 C
268 16-08-2019 22:15:00 17 C 85 % 14.46 C
269 16-08-2019 22:20:00 16.9 C 85 % 14.36 C
270 16-08-2019 22:25:00 16.9 C 85 % 14.36 C
271 16-08-2019 22:30:00 16.8 C 85 % 14.26 C
272 16-08-2019 22:35:00 16.8 C 85 % 14.26 C
273 16-08-2019 22:40:00 16.7 C 85 % 14.17 C
274 16-08-2019 22:45:00 16.7 C 85 % 14.17 C
275 16-08-2019 22:50:00 16.7 C 86 % 14.35 C
Sensor: Nr:Datum:Temp:Feuchte:Taupunkt:
Aussen-T/F 276 16-08-2019 22:55:00 16.7 C 86 % 14.35 C
277 16-08-2019 23:00:00 16.6 C 86 % 14.25 C
278 16-08-2019 23:05:00 16.5 C 86 % 14.15 C
279 16-08-2019 23:10:00 16.4 C 86 % 14.05 C
280 16-08-2019 23:15:00 16.3 C 86 % 13.95 C
281 16-08-2019 23:20:00 16.3 C 86 % 13.95 C
282 16-08-2019 23:25:00 16.2 C 87 % 14.03 C
283 16-08-2019 23:30:00 16.2 C 87 % 14.03 C
284 16-08-2019 23:35:00 16.2 C 87 % 14.03 C
285 16-08-2019 23:40:00 16.1 C 87 % 13.94 C
286 16-08-2019 23:45:00 16.1 C 87 % 13.94 C
287 16-08-2019 23:50:00 16 C 87 % 13.84 C
288 16-08-2019 23:55:00 15.9 C 87 % 13.74 C

Legende:
   Min
   Max


Maximal/Minimal-Werte vom 16.08.2019 - 16.08.2019

Sensor Min Max Avg
Temp
(Aussen-T/F)
13.5 °C
16-08-2019  05:05:00
24.9 °C
16-08-2019  18:05:00
17.72 °C
Feuchte
(Aussen-T/F)
50 %
16-08-2019  17:15:00
97 %
16-08-2019  05:45:00
80.7 %
Taupunkt
(Aussen-T/F)
12.87 C
16-08-2019  05:05:00
16.16 C
16-08-2019  19:40:00
13.94 C

Die Daten stammen von einer Davis Vantage Pro 2 Wetter-Station und werden unter Linux mit der Software wview2wettercgi und aufbereitet. Alle Angaben erfolgen ohne Gewähr für ihre Vollständigkeit oder Richtigkeit.
Kontakt: Rainer Krienke krienke@uni-koblenz.de . Meine Webseiten an der Uni Koblenz oder privat.
Version: $Revision: 0.78 $